createdAt,value
2018-12-30T00:00:42.620Z,5.50
2018-12-30T00:03:11.796Z,5.50
2018-12-30T00:05:41.067Z,5.50
2018-12-30T00:08:09.904Z,5.50
2018-12-30T00:10:38.716Z,5.50
2018-12-30T00:13:07.788Z,5.50
2018-12-30T00:15:36.714Z,5.60
2018-12-30T00:18:06.017Z,5.60
2018-12-30T00:20:35.256Z,5.60
2018-12-30T00:23:04.153Z,5.60
2018-12-30T00:25:33.040Z,5.60
2018-12-30T00:28:01.825Z,5.70
2018-12-30T00:30:30.620Z,5.70
2018-12-30T00:32:59.518Z,5.70
2018-12-30T00:35:28.610Z,5.70
2018-12-30T00:37:57.588Z,5.70
2018-12-30T00:40:26.480Z,4.10
2018-12-30T00:42:55.396Z,5.80
2018-12-30T00:45:24.360Z,5.80
2018-12-30T00:47:53.274Z,5.80
2018-12-30T00:50:22.205Z,5.90
2018-12-30T00:52:51.437Z,5.90
2018-12-30T00:55:20.348Z,5.90
2018-12-30T00:57:49.272Z,5.90
2018-12-30T01:00:18.229Z,5.90
2018-12-30T01:02:47.128Z,6.00
2018-12-30T01:05:16.065Z,6.00
2018-12-30T01:07:44.916Z,6.00
2018-12-30T01:10:14.059Z,6.10
2018-12-30T01:12:42.891Z,6.10
2018-12-30T01:15:11.793Z,6.10
2018-12-30T01:17:40.621Z,6.10
2018-12-30T01:20:09.719Z,6.20
2018-12-30T01:22:38.542Z,6.20
2018-12-30T01:25:07.548Z,6.50
2018-12-30T01:27:36.441Z,6.30
2018-12-30T01:30:05.894Z,6.30
2018-12-30T01:32:34.817Z,6.30
2018-12-30T01:35:04.155Z,6.30
2018-12-30T01:37:33.076Z,6.30
2018-12-30T01:40:01.951Z,6.30
2018-12-30T01:42:30.801Z,6.30
2018-12-30T01:44:59.631Z,6.30
2018-12-30T01:47:28.836Z,6.30
2018-12-30T01:49:57.749Z,6.30
2018-12-30T01:52:26.676Z,6.40
2018-12-30T01:54:55.472Z,6.40
2018-12-30T01:57:24.384Z,6.40
2018-12-30T01:59:53.668Z,6.40
2018-12-30T02:02:22.589Z,6.40
2018-12-30T02:04:51.672Z,6.40
2018-12-30T02:07:20.477Z,6.40
2018-12-30T02:09:49.384Z,6.40
2018-12-30T02:12:18.209Z,6.40
2018-12-30T02:14:47.348Z,6.40
2018-12-30T02:17:16.236Z,6.40
2018-12-30T02:19:45.173Z,6.40
2018-12-30T02:22:13.964Z,6.50
2018-12-30T02:24:42.893Z,6.50
2018-12-30T02:27:11.692Z,6.50
2018-12-30T02:29:40.752Z,6.50
2018-12-30T02:32:09.653Z,6.40
2018-12-30T02:34:38.660Z,6.40
2018-12-30T02:37:07.488Z,6.40
2018-12-30T02:39:36.392Z,6.40
2018-12-30T02:42:05.390Z,6.40
2018-12-30T02:44:34.387Z,6.40
2018-12-30T02:47:03.263Z,6.40
2018-12-30T02:49:32.057Z,6.40
2018-12-30T02:52:00.894Z,6.40
2018-12-30T02:54:29.785Z,6.50
2018-12-30T02:56:58.846Z,6.50
2018-12-30T02:59:27.648Z,6.50
2018-12-30T03:01:56.904Z,6.50
2018-12-30T03:04:25.797Z,6.50
2018-12-30T03:06:54.664Z,6.50
2018-12-30T03:09:23.441Z,6.60
2018-12-30T03:11:52.414Z,6.60
2018-12-30T03:14:21.620Z,6.60
2018-12-30T03:16:50.436Z,6.60
2018-12-30T03:19:19.432Z,6.60
2018-12-30T03:21:48.262Z,6.70
2018-12-30T03:24:17.065Z,6.70
2018-12-30T03:26:45.889Z,6.70
2018-12-30T03:29:14.788Z,6.70
2018-12-30T03:31:43.618Z,6.70
2018-12-30T03:34:12.580Z,6.70
2018-12-30T03:36:41.498Z,6.70
2018-12-30T03:39:10.308Z,6.70
2018-12-30T03:41:39.469Z,6.70
2018-12-30T03:44:08.296Z,6.70
2018-12-30T03:46:37.116Z,6.80
2018-12-30T03:49:06.083Z,6.80
2018-12-30T03:51:35.004Z,6.80
2018-12-30T03:54:03.892Z,6.80
2018-12-30T03:56:32.684Z,6.80
2018-12-30T03:59:01.620Z,6.80
2018-12-30T04:01:30.584Z,6.80
2018-12-30T04:03:59.599Z,6.80
2018-12-30T04:06:28.496Z,6.80
2018-12-30T04:08:57.364Z,6.80
2018-12-30T04:11:26.184Z,6.90
2018-12-30T04:13:54.988Z,6.90
2018-12-30T04:16:23.792Z,6.90
2018-12-30T04:18:52.612Z,7.00
2018-12-30T04:21:21.481Z,7.00
2018-12-30T04:23:50.236Z,7.00
2018-12-30T04:26:19.178Z,7.00
2018-12-30T04:28:47.967Z,7.00
2018-12-30T04:31:16.780Z,7.10
2018-12-30T04:33:45.577Z,7.10
2018-12-30T04:36:14.455Z,7.10
2018-12-30T04:38:43.225Z,7.10
2018-12-30T04:41:12.026Z,7.10
2018-12-30T04:43:40.940Z,7.10
2018-12-30T04:46:09.787Z,7.10
2018-12-30T04:48:38.608Z,7.20
2018-12-30T04:51:07.477Z,7.20
2018-12-30T04:53:36.326Z,7.20
2018-12-30T04:56:05.225Z,7.20
2018-12-30T04:58:34.108Z,7.20
2018-12-30T05:01:02.981Z,7.20
2018-12-30T05:03:31.752Z,7.20
2018-12-30T05:06:00.664Z,7.20
2018-12-30T05:08:29.458Z,7.30
2018-12-30T05:10:58.240Z,7.30
2018-12-30T05:13:27.037Z,7.30
2018-12-30T05:15:55.938Z,7.30
2018-12-30T05:18:24.724Z,7.30
2018-12-30T05:20:53.706Z,7.40
2018-12-30T05:23:22.540Z,7.40
2018-12-30T05:25:51.528Z,7.40
2018-12-30T05:28:20.434Z,7.40
2018-12-30T05:30:49.284Z,7.40
2018-12-30T05:33:18.212Z,7.40
2018-12-30T05:35:47.103Z,7.40
2018-12-30T05:38:16.252Z,7.40
2018-12-30T05:40:45.300Z,7.40
2018-12-30T05:43:14.200Z,7.30
2018-12-30T05:45:43.022Z,7.30
2018-12-30T05:48:11.841Z,7.40
2018-12-30T05:50:40.708Z,7.30
2018-12-30T05:53:09.491Z,7.40
2018-12-30T05:55:38.316Z,7.30
2018-12-30T05:58:07.116Z,7.30
2018-12-30T06:00:35.920Z,7.30
2018-12-30T06:03:04.824Z,7.30
2018-12-30T06:05:33.621Z,7.30
2018-12-30T06:08:02.484Z,7.30
2018-12-30T06:10:31.267Z,7.30
2018-12-30T06:13:00.084Z,7.30
2018-12-30T06:15:29.208Z,7.30
2018-12-30T06:17:58.004Z,7.30
2018-12-30T06:20:26.780Z,7.30
2018-12-30T06:22:55.917Z,7.20
2018-12-30T06:25:24.819Z,7.20
2018-12-30T06:27:53.621Z,7.20
2018-12-30T06:30:22.536Z,7.20
2018-12-30T06:32:51.313Z,7.10
2018-12-30T06:35:20.095Z,7.00
2018-12-30T06:37:48.996Z,7.00
2018-12-30T06:40:17.808Z,7.00
2018-12-30T06:42:46.612Z,6.90
2018-12-30T06:45:15.419Z,6.90
2018-12-30T06:47:44.244Z,6.90
2018-12-30T06:50:13.036Z,6.90
2018-12-30T06:52:41.833Z,6.90
2018-12-30T06:55:10.609Z,6.90
2018-12-30T06:57:39.397Z,7.00
2018-12-30T07:00:08.375Z,7.00
2018-12-30T07:02:37.184Z,7.00
2018-12-30T07:05:06.166Z,7.00
2018-12-30T07:07:34.965Z,7.00
2018-12-30T07:10:04.169Z,7.00
2018-12-30T07:12:32.949Z,7.00
2018-12-30T07:15:01.944Z,7.00
2018-12-30T07:17:30.755Z,7.00
2018-12-30T07:19:59.552Z,7.00
2018-12-30T07:22:28.350Z,7.00
2018-12-30T07:24:57.336Z,6.90
2018-12-30T07:27:26.240Z,7.00
2018-12-30T07:29:55.069Z,7.00
2018-12-30T07:32:23.950Z,7.00
2018-12-30T07:34:52.836Z,7.00
2018-12-30T07:37:21.660Z,7.00
2018-12-30T07:39:50.595Z,7.00
2018-12-30T07:42:19.469Z,7.00
2018-12-30T07:44:48.384Z,7.00
2018-12-30T07:47:17.212Z,7.00
2018-12-30T07:49:46.097Z,7.00
2018-12-30T07:52:15.003Z,7.00
2018-12-30T07:54:43.934Z,7.00
2018-12-30T07:57:12.820Z,7.10
2018-12-30T07:59:41.628Z,7.10
2018-12-30T08:02:10.536Z,7.10
2018-12-30T08:04:39.718Z,7.20
2018-12-30T08:07:08.520Z,7.20
2018-12-30T08:09:37.504Z,7.20
2018-12-30T08:12:06.644Z,7.20
2018-12-30T08:14:35.728Z,7.20
2018-12-30T08:17:04.568Z,7.20
2018-12-30T08:19:33.371Z,7.30
2018-12-30T08:22:02.423Z,7.30
2018-12-30T08:24:31.332Z,7.30
2018-12-30T08:27:00.160Z,7.30
2018-12-30T08:29:29.000Z,7.40
2018-12-30T08:31:58.017Z,7.40
2018-12-30T08:34:26.940Z,7.40
2018-12-30T08:36:55.844Z,7.50
2018-12-30T08:39:24.733Z,7.50
2018-12-30T08:41:53.635Z,7.50
2018-12-30T08:44:22.552Z,7.50
2018-12-30T08:46:51.377Z,7.50
2018-12-30T08:49:20.244Z,7.50
2018-12-30T08:51:49.158Z,7.50
2018-12-30T08:54:18.045Z,7.50
2018-12-30T08:56:47.332Z,7.50
2018-12-30T08:59:16.241Z,7.50
2018-12-30T09:01:45.140Z,7.50
2018-12-30T09:04:14.498Z,7.60
2018-12-30T09:06:43.368Z,7.60
2018-12-30T09:09:12.483Z,7.60
2018-12-30T09:11:41.444Z,7.70
2018-12-30T09:14:10.252Z,7.60
2018-12-30T09:16:39.040Z,7.70
2018-12-30T09:19:07.926Z,7.70
2018-12-30T09:21:36.784Z,7.80
2018-12-30T09:24:05.677Z,7.90
2018-12-30T09:26:34.464Z,7.90
2018-12-30T09:29:03.300Z,7.90
2018-12-30T09:31:32.209Z,7.90
2018-12-30T09:34:01.040Z,8.00
2018-12-30T09:36:29.950Z,8.00
2018-12-30T09:38:58.746Z,8.00
2018-12-30T09:41:27.757Z,8.00
2018-12-30T09:43:56.679Z,8.10
2018-12-30T09:46:25.632Z,8.10
2018-12-30T09:48:54.460Z,8.10
2018-12-30T09:51:23.437Z,8.10
2018-12-30T09:53:52.219Z,8.10
2018-12-30T09:56:21.000Z,8.10
2018-12-30T09:58:49.953Z,8.10
2018-12-30T10:01:18.953Z,8.10
2018-12-30T10:03:47.868Z,8.10
2018-12-30T10:06:16.796Z,8.10
2018-12-30T10:08:45.674Z,8.00
2018-12-30T10:11:14.504Z,8.00
2018-12-30T10:13:43.468Z,8.10
2018-12-30T10:16:12.377Z,8.10
2018-12-30T10:18:41.259Z,8.20
2018-12-30T10:21:10.046Z,8.20
2018-12-30T10:23:38.923Z,8.30
2018-12-30T10:26:07.801Z,8.40
2018-12-30T10:28:36.604Z,8.40
2018-12-30T10:31:05.464Z,8.50
2018-12-30T10:33:34.251Z,8.50
2018-12-30T10:36:03.072Z,8.50
2018-12-30T10:38:31.940Z,8.60
2018-12-30T10:41:00.780Z,8.60
2018-12-30T10:43:29.724Z,8.60
2018-12-30T10:45:58.662Z,8.60
2018-12-30T10:48:27.472Z,8.70
2018-12-30T10:50:56.297Z,8.60
2018-12-30T10:53:25.188Z,8.60
2018-12-30T10:55:53.996Z,8.60
2018-12-30T10:58:22.797Z,8.60
2018-12-30T11:00:51.771Z,8.60
2018-12-30T11:03:20.664Z,8.50
2018-12-30T11:05:49.464Z,8.50
2018-12-30T11:08:18.447Z,8.50
2018-12-30T11:10:47.453Z,8.50
2018-12-30T11:13:16.292Z,8.50
2018-12-30T11:15:45.247Z,8.50
2018-12-30T11:18:14.091Z,8.50
2018-12-30T11:20:43.012Z,8.50
2018-12-30T11:23:11.972Z,8.50
2018-12-30T11:25:41.020Z,8.40
2018-12-30T11:28:10.060Z,8.20
2018-12-30T11:30:39.064Z,8.20
2018-12-30T11:33:08.136Z,8.10
2018-12-30T11:35:38.455Z,8.10
2018-12-30T11:38:19.158Z,8.10
2018-12-30T11:40:57.871Z,8.00
2018-12-30T11:43:46.427Z,8.00
2018-12-30T11:46:22.850Z,8.00
2018-12-30T11:48:48.241Z,7.90
2018-12-30T11:51:44.217Z,7.90
2018-12-30T11:54:29.237Z,7.90
2018-12-30T11:56:55.587Z,7.90
2018-12-30T11:59:24.514Z,7.90
2018-12-30T12:01:53.739Z,7.90
2018-12-30T12:04:22.554Z,7.90
2018-12-30T12:06:51.468Z,7.90
2018-12-30T12:09:20.416Z,7.90
2018-12-30T12:11:49.452Z,7.90
2018-12-30T12:14:18.250Z,7.90
2018-12-30T12:16:47.144Z,7.90
2018-12-30T12:19:16.106Z,7.90
2018-12-30T12:21:45.015Z,7.90
2018-12-30T12:24:13.940Z,7.90
2018-12-30T12:26:42.757Z,7.90
2018-12-30T12:29:11.782Z,7.90
2018-12-30T12:31:40.708Z,7.90
2018-12-30T12:34:09.506Z,7.90
2018-12-30T12:36:38.314Z,7.90
2018-12-30T12:39:07.570Z,7.90
2018-12-30T12:41:36.360Z,7.90
2018-12-30T12:44:05.241Z,7.90
2018-12-30T12:46:34.181Z,8.00
2018-12-30T12:49:03.247Z,8.00
2018-12-30T12:51:32.147Z,8.00
2018-12-30T12:54:00.952Z,8.10
2018-12-30T12:56:29.770Z,8.10
2018-12-30T12:58:58.884Z,8.20
2018-12-30T13:01:27.808Z,8.10
2018-12-30T13:03:56.644Z,8.20
2018-12-30T13:06:25.484Z,8.20
2018-12-30T13:08:54.324Z,8.10
2018-12-30T13:11:23.193Z,8.10
2018-12-30T13:13:52.111Z,8.10
2018-12-30T13:16:20.880Z,8.10
2018-12-30T13:18:49.764Z,8.10
2018-12-30T13:21:18.544Z,8.10
2018-12-30T13:23:47.360Z,8.10
2018-12-30T13:26:16.225Z,8.10
2018-12-30T13:28:45.196Z,8.10
2018-12-30T13:31:14.100Z,8.10
2018-12-30T13:33:42.996Z,8.10
2018-12-30T13:36:12.860Z,8.20
2018-12-30T13:38:41.754Z,8.20
2018-12-30T13:41:10.644Z,8.20
2018-12-30T13:43:39.552Z,8.20
2018-12-30T13:46:08.359Z,8.20
2018-12-30T13:48:37.264Z,8.30
2018-12-30T13:51:06.472Z,8.30
2018-12-30T13:53:35.409Z,8.40
2018-12-30T13:56:04.428Z,8.30
2018-12-30T13:58:33.276Z,8.30
2018-12-30T14:01:02.256Z,8.30
2018-12-30T14:03:31.100Z,8.30
2018-12-30T14:06:00.182Z,8.40
2018-12-30T14:08:29.241Z,8.40
2018-12-30T14:10:58.092Z,8.40
2018-12-30T14:13:26.960Z,8.40
2018-12-30T14:15:55.842Z,8.40
2018-12-30T14:18:24.660Z,8.40
2018-12-30T14:20:53.518Z,8.30
2018-12-30T14:23:22.453Z,8.40
2018-12-30T14:25:51.340Z,8.40
2018-12-30T14:28:20.103Z,8.50
2018-12-30T14:30:49.348Z,8.50
2018-12-30T14:33:18.137Z,8.50
2018-12-30T14:35:46.972Z,8.50
2018-12-30T14:38:15.869Z,8.50
2018-12-30T14:40:47.001Z,8.60
2018-12-30T14:43:16.278Z,8.70
2018-12-30T14:45:45.244Z,8.70
2018-12-30T14:48:14.067Z,8.70
2018-12-30T14:50:42.884Z,8.70
2018-12-30T14:53:19.155Z,8.70
2018-12-30T14:55:42.624Z,8.70
2018-12-30T14:58:11.400Z,8.60
2018-12-30T15:00:40.581Z,8.60
2018-12-30T15:03:09.568Z,8.60
2018-12-30T15:05:45.845Z,8.60
2018-12-30T15:08:15.164Z,8.60
2018-12-30T15:10:44.224Z,8.60
2018-12-30T15:13:13.008Z,8.60
2018-12-30T15:15:41.824Z,8.50
2018-12-30T15:18:11.787Z,8.50
2018-12-30T15:20:55.576Z,8.50
2018-12-30T15:23:19.984Z,8.50
2018-12-30T15:25:56.595Z,8.40
2018-12-30T15:28:26.823Z,8.40
2018-12-30T15:30:55.748Z,8.40
2018-12-30T15:33:32.174Z,8.40
2018-12-30T15:36:00.984Z,8.30
2018-12-30T15:38:29.892Z,8.20
2018-12-30T15:40:58.877Z,8.20
2018-12-30T15:43:27.700Z,8.20
2018-12-30T15:45:56.688Z,8.20
2018-12-30T15:48:25.588Z,8.20
2018-12-30T15:50:54.524Z,8.20
2018-12-30T15:53:23.325Z,8.20
2018-12-30T15:55:52.164Z,8.20
2018-12-30T15:58:20.968Z,8.20
2018-12-30T16:00:49.874Z,8.20
2018-12-30T16:03:18.747Z,8.20
2018-12-30T16:05:47.640Z,8.20
2018-12-30T16:08:16.528Z,8.20
2018-12-30T16:10:45.417Z,8.20
2018-12-30T16:13:14.321Z,8.20
2018-12-30T16:15:43.206Z,8.20
2018-12-30T16:18:12.116Z,8.20
2018-12-30T16:20:41.117Z,8.20
2018-12-30T16:23:10.088Z,8.20
2018-12-30T16:25:38.872Z,8.20
2018-12-30T16:28:07.713Z,8.20
2018-12-30T16:30:36.508Z,8.10
2018-12-30T16:33:05.399Z,8.10
2018-12-30T16:35:34.545Z,8.10
2018-12-30T16:38:03.417Z,8.10
2018-12-30T16:40:32.180Z,8.10
2018-12-30T16:43:02.823Z,8.10
2018-12-30T16:45:31.739Z,8.10
2018-12-30T16:48:00.676Z,8.30
2018-12-30T16:50:29.498Z,8.40
2018-12-30T16:52:58.344Z,8.40
2018-12-30T16:55:34.715Z,8.50
2018-12-30T16:57:57.868Z,8.50
2018-12-30T17:00:27.161Z,8.50
2018-12-30T17:02:56.008Z,8.50
2018-12-30T17:05:24.788Z,8.60
2018-12-30T17:07:53.927Z,8.60
2018-12-30T17:10:22.689Z,8.60
2018-12-30T17:12:51.500Z,8.50
2018-12-30T17:15:20.380Z,8.60
2018-12-30T17:17:49.281Z,8.50
2018-12-30T17:20:18.152Z,8.40
2018-12-30T17:22:47.036Z,8.40
2018-12-30T17:25:15.956Z,8.30
2018-12-30T17:27:44.874Z,8.20
2018-12-30T17:30:13.812Z,8.20
2018-12-30T17:32:42.640Z,8.10
2018-12-30T17:35:11.577Z,8.10
2018-12-30T17:37:40.666Z,8.10
2018-12-30T17:40:09.916Z,8.10
2018-12-30T17:42:38.833Z,8.10
2018-12-30T17:45:07.912Z,8.10
2018-12-30T17:47:36.812Z,8.20
2018-12-30T17:50:07.543Z,8.20
2018-12-30T17:52:36.444Z,8.20
2018-12-30T17:55:05.548Z,8.10
2018-12-30T17:57:34.420Z,8.20
2018-12-30T18:00:04.152Z,8.30
2018-12-30T18:02:32.994Z,8.20
2018-12-30T18:05:01.896Z,8.20
2018-12-30T18:07:30.696Z,8.20
2018-12-30T18:09:59.496Z,8.20
2018-12-30T18:12:28.473Z,8.10
2018-12-30T18:14:57.424Z,8.10
2018-12-30T18:17:26.265Z,8.10
2018-12-30T18:19:55.128Z,8.10
2018-12-30T18:22:23.956Z,8.10
2018-12-30T18:24:52.928Z,8.20
2018-12-30T18:27:21.791Z,8.20
2018-12-30T18:29:50.612Z,8.30
2018-12-30T18:32:19.466Z,8.30
2018-12-30T18:34:48.280Z,8.30
2018-12-30T18:37:17.149Z,8.20
2018-12-30T18:39:46.204Z,8.20
2018-12-30T18:42:14.997Z,8.10
2018-12-30T18:44:43.817Z,8.10
2018-12-30T18:47:12.677Z,8.10
2018-12-30T18:49:41.567Z,8.10
2018-12-30T18:52:10.464Z,8.10
2018-12-30T18:54:39.633Z,8.10
2018-12-30T18:57:08.444Z,8.10
2018-12-30T18:59:37.257Z,8.10
2018-12-30T19:02:06.236Z,8.10
2018-12-30T19:04:35.625Z,8.00
2018-12-30T19:07:04.614Z,8.10
2018-12-30T19:09:33.676Z,8.00
2018-12-30T19:12:02.652Z,8.10
2018-12-30T19:14:31.496Z,8.10
2018-12-30T19:17:00.556Z,8.10
2018-12-30T19:19:29.432Z,8.10
2018-12-30T19:21:58.313Z,8.10
2018-12-30T19:24:27.342Z,8.10
2018-12-30T19:26:56.244Z,8.00
2018-12-30T19:29:25.118Z,8.00
2018-12-30T19:31:53.932Z,8.00
2018-12-30T19:34:22.725Z,8.00
2018-12-30T19:36:51.531Z,8.00
2018-12-30T19:39:20.568Z,8.10
2018-12-30T19:41:49.462Z,8.10
2018-12-30T19:44:18.254Z,8.10
2018-12-30T19:46:47.108Z,8.20
2018-12-30T19:49:16.148Z,8.20
2018-12-30T19:51:45.912Z,8.20
2018-12-30T19:54:14.980Z,8.10
2018-12-30T19:56:43.816Z,8.10
2018-12-30T19:59:12.632Z,8.10
2018-12-30T20:01:41.533Z,8.10
2018-12-30T20:04:10.656Z,8.10
2018-12-30T20:06:39.637Z,8.10
2018-12-30T20:09:08.623Z,8.10
2018-12-30T20:11:37.455Z,8.10
2018-12-30T20:14:06.340Z,8.10
2018-12-30T20:16:35.207Z,8.10
2018-12-30T20:19:04.310Z,8.10
2018-12-30T20:21:33.104Z,8.00
2018-12-30T20:24:02.095Z,8.10
2018-12-30T20:26:30.924Z,8.10
2018-12-30T20:28:59.921Z,8.00
2018-12-30T20:31:28.778Z,8.00
2018-12-30T20:33:57.668Z,8.10
2018-12-30T20:36:26.553Z,8.00
2018-12-30T20:38:55.957Z,8.00
2018-12-30T20:41:24.880Z,7.60
2018-12-30T20:43:53.804Z,8.00
2018-12-30T20:46:22.742Z,8.00
2018-12-30T20:48:51.544Z,8.00
2018-12-30T20:51:20.460Z,8.00
2018-12-30T20:53:49.284Z,7.90
2018-12-30T20:56:18.164Z,7.90
2018-12-30T20:58:47.006Z,7.90
2018-12-30T21:01:16.168Z,7.90
2018-12-30T21:03:45.060Z,7.90
2018-12-30T21:06:13.888Z,7.80
2018-12-30T21:08:42.689Z,7.80
2018-12-30T21:11:11.519Z,7.80
2018-12-30T21:13:40.352Z,7.80
2018-12-30T21:16:09.240Z,7.90
2018-12-30T21:18:38.060Z,7.90
2018-12-30T21:21:07.268Z,7.90
2018-12-30T21:23:36.068Z,7.90
2018-12-30T21:26:05.193Z,7.80
2018-12-30T21:28:33.976Z,7.80
2018-12-30T21:31:02.885Z,7.80
2018-12-30T21:33:31.745Z,7.80
2018-12-30T21:36:00.721Z,7.70
2018-12-30T21:38:29.776Z,7.70
2018-12-30T21:40:58.675Z,7.70
2018-12-30T21:43:27.557Z,7.70
2018-12-30T21:45:56.348Z,7.80
2018-12-30T21:48:25.152Z,7.70
2018-12-30T21:50:54.029Z,7.70
2018-12-30T21:53:23.103Z,7.70
2018-12-30T21:55:51.988Z,7.60
2018-12-30T21:58:20.785Z,7.50
2018-12-30T22:00:49.604Z,7.50
2018-12-30T22:03:18.472Z,7.50
2018-12-30T22:05:47.412Z,7.40
2018-12-30T22:08:16.210Z,7.40
2018-12-30T22:10:45.088Z,7.40
2018-12-30T22:13:13.900Z,7.30
2018-12-30T22:15:42.708Z,7.30
2018-12-30T22:18:11.576Z,7.30
2018-12-30T22:20:40.596Z,7.30
2018-12-30T22:23:09.464Z,7.30
2018-12-30T22:25:38.456Z,7.30
2018-12-30T22:28:07.264Z,7.30
2018-12-30T22:30:36.167Z,7.30
2018-12-30T22:33:05.026Z,7.30
2018-12-30T22:35:33.899Z,7.30
2018-12-30T22:38:02.664Z,7.40
2018-12-30T22:40:31.562Z,7.40
2018-12-30T22:43:00.356Z,7.50
2018-12-30T22:45:29.412Z,7.50
2018-12-30T22:47:58.298Z,7.60
2018-12-30T22:50:27.089Z,7.60
2018-12-30T22:52:55.984Z,7.50
2018-12-30T22:55:24.905Z,7.50
2018-12-30T22:57:53.811Z,7.50
2018-12-30T23:00:51.436Z,7.50
2018-12-30T23:03:20.300Z,7.60
2018-12-30T23:05:49.164Z,7.50
2018-12-30T23:08:18.308Z,7.50
2018-12-30T23:10:49.353Z,7.50
2018-12-30T23:13:18.157Z,7.50
2018-12-30T23:15:46.916Z,7.40
2018-12-30T23:18:15.712Z,7.40
2018-12-30T23:20:44.597Z,7.40
2018-12-30T23:23:13.464Z,7.50
2018-12-30T23:25:42.708Z,7.40
2018-12-30T23:28:11.593Z,7.40
2018-12-30T23:30:40.387Z,7.40
2018-12-30T23:33:09.188Z,7.40
2018-12-30T23:35:38.090Z,7.40
2018-12-30T23:38:06.853Z,7.40
2018-12-30T23:40:35.764Z,7.40
2018-12-30T23:43:04.828Z,7.40
2018-12-30T23:45:33.793Z,7.40
2018-12-30T23:48:02.600Z,7.40
2018-12-30T23:50:31.420Z,7.30
2018-12-30T23:53:00.692Z,7.30
2018-12-30T23:55:29.732Z,7.30
2018-12-30T23:57:58.708Z,7.30
